Time;durP1;ratioP1;P1;durP2;ratioP2;P2;SDS_P1;SDS_P2;PMS_P1;PMS_P2;Temp;Humidity;BMP_temperature;BMP_pressure;BME280_temperature;BME280_humidity;BME280_pressure;Samples;Min_cycle;Max_cycle;Signal;HPM_P1;HPM_P2
2022/03/12 00:00:57;;;;;;;1.30;1.30;;;;;;;;;;1831421;77;25704;-43
2022/03/12 00:03:25;;;;;;;3.90;2.05;;;;;;;;;;1818717;77;26270;-41
2022/03/12 00:05:54;;;;;;;1.37;1.35;;;;;;;;;;1811009;77;26319;-42
2022/03/12 00:08:22;;;;;;;1.42;1.40;;;;;;;;;;1832098;77;26696;-43
2022/03/12 00:10:52;;;;;;;1.70;1.30;;;;;;;;;;1776757;76;50951;-86
2022/03/12 00:13:20;;;;;;;1.40;1.30;;;;;;;;;;1768834;80;26299;-83
2022/03/12 00:15:59;;;;;;;1.20;1.20;;;;;;;;;;1737394;81;26335;-82
2022/03/12 00:18:20;;;;;;;1.65;1.50;;;;;;;;;;1734887;82;26336;-84
2022/03/12 00:20:48;;;;;;;1.45;1.30;;;;;;;;;;1724986;82;26288;-83
2022/03/12 00:23:18;;;;;;;1.57;1.45;;;;;;;;;;1741928;81;26359;-83
2022/03/12 00:25:46;;;;;;;1.42;1.32;;;;;;;;;;1725409;81;26296;-83
2022/03/12 00:28:15;;;;;;;2.15;1.30;;;;;;;;;;1743024;82;26346;-83
2022/03/12 00:30:49;;;;;;;1.30;1.20;;;;;;;;;;1745770;81;26281;-83
2022/03/12 00:33:17;;;;;;;1.35;1.30;;;;;;;;;;1738117;79;26336;-83
2022/03/12 00:35:46;;;;;;;1.22;1.22;;;;;;;;;;1729763;82;26272;-83
2022/03/12 00:38:14;;;;;;;1.50;1.40;;;;;;;;;;1726570;82;26680;-83
2022/03/12 00:40:41;;;;;;;2.55;1.50;;;;;;;;;;1720976;82;26303;-82
2022/03/12 00:43:09;;;;;;;1.60;1.50;;;;;;;;;;1724095;82;26865;-83
2022/03/12 00:45:37;;;;;;;1.70;1.60;;;;;;;;;;1733410;81;26360;-82
2022/03/12 00:48:05;;;;;;;1.40;1.30;;;;;;;;;;1733016;81;26311;-83
2022/03/12 00:50:32;;;;;;;2.02;1.30;;;;;;;;;;1737698;81;26255;-83
2022/03/12 00:53:00;;;;;;;1.22;1.22;;;;;;;;;;1718287;82;26311;-84
2022/03/12 00:55:28;;;;;;;1.52;1.40;;;;;;;;;;1731176;82;26816;-83
2022/03/12 00:57:56;;;;;;;1.35;1.35;;;;;;;;;;1732698;81;26273;-83
2022/03/12 01:00:25;;;;;;;1.57;1.47;;;;;;;;;;1741636;81;26623;-83
2022/03/12 01:02:52;;;;;;;1.45;1.37;;;;;;;;;;1739464;79;26933;-83
2022/03/12 01:05:21;;;;;;;1.37;1.37;;;;;;;;;;1743656;81;26301;-83
2022/03/12 01:07:48;;;;;;;1.62;1.40;;;;;;;;;;1738693;81;26316;-83
2022/03/12 01:10:15;;;;;;;2.25;1.57;;;;;;;;;;1724379;81;26723;-83
2022/03/12 01:12:43;;;;;;;1.60;1.50;;;;;;;;;;1740167;82;26262;-83
2022/03/12 01:15:11;;;;;;;2.05;1.45;;;;;;;;;;1723326;82;26941;-82
2022/03/12 01:17:40;;;;;;;1.42;1.32;;;;;;;;;;1733974;82;26282;-83
2022/03/12 01:20:08;;;;;;;1.50;1.40;;;;;;;;;;1741745;82;26337;-83
2022/03/12 01:22:39;;;;;;;1.30;1.30;;;;;;;;;;1739550;82;26307;-83
2022/03/12 01:25:07;;;;;;;1.30;1.30;;;;;;;;;;1721251;82;26314;-83
2022/03/12 01:27:34;;;;;;;1.70;1.55;;;;;;;;;;1739739;82;26266;-83
2022/03/12 01:30:01;;;;;;;2.40;1.60;;;;;;;;;;1738812;81;26285;-83
2022/03/12 01:32:29;;;;;;;1.50;1.40;;;;;;;;;;1744622;81;26294;-83
2022/03/12 01:34:56;;;;;;;1.98;1.55;;;;;;;;;;1714980;82;26284;-83
2022/03/12 01:37:24;;;;;;;1.50;1.40;;;;;;;;;;1733389;82;26365;-83
2022/03/12 01:39:51;;;;;;;1.98;1.87;;;;;;;;;;1742089;82;26286;-83
2022/03/12 01:42:21;;;;;;;1.30;1.20;;;;;;;;;;1725028;82;26281;-83
2022/03/12 01:44:50;;;;;;;1.30;1.30;;;;;;;;;;1730256;82;26361;-83
2022/03/12 01:47:20;;;;;;;4.05;1.52;;;;;;;;;;1740726;82;26785;-83
2022/03/12 01:49:48;;;;;;;2.08;1.47;;;;;;;;;;1722006;82;26387;-83
2022/03/12 01:52:16;;;;;;;2.12;1.50;;;;;;;;;;1748150;81;26247;-83
2022/03/12 01:54:44;;;;;;;1.87;1.60;;;;;;;;;;1734094;81;26887;-84
2022/03/12 01:57:12;;;;;;;3.75;2.08;;;;;;;;;;1733400;82;26319;-83
2022/03/12 01:59:39;;;;;;;1.30;1.30;;;;;;;;;;1720307;82;26433;-83
2022/03/12 02:02:12;;;;;;;1.32;1.30;;;;;;;;;;1734490;82;26258;-82
2022/03/12 02:04:37;;;;;;;1.45;1.35;;;;;;;;;;1734289;82;26332;-83
2022/03/12 02:07:04;;;;;;;1.92;1.57;;;;;;;;;;1730524;82;26755;-84
2022/03/12 02:09:32;;;;;;;1.52;1.42;;;;;;;;;;1727667;82;26333;-83
2022/03/12 02:11:59;;;;;;;1.45;1.35;;;;;;;;;;1740239;82;26380;-85
2022/03/12 02:14:28;;;;;;;1.70;1.60;;;;;;;;;;1729155;82;26241;-83
2022/03/12 02:16:59;;;;;;;3.30;1.60;;;;;;;;;;1726451;82;26297;-83
2022/03/12 02:19:28;;;;;;;1.50;1.40;;;;;;;;;;1740996;81;26293;-83
2022/03/12 02:21:56;;;;;;;1.50;1.40;;;;;;;;;;1742626;82;26724;-85
2022/03/12 02:24:28;;;;;;;1.42;1.40;;;;;;;;;;1738201;81;26736;-83
2022/03/12 02:26:56;;;;;;;2.00;1.50;;;;;;;;;;1733906;82;26262;-83
2022/03/12 02:29:25;;;;;;;1.70;1.47;;;;;;;;;;1742108;82;26760;-83
2022/03/12 02:31:54;;;;;;;1.50;1.40;;;;;;;;;;1741428;82;26337;-83
2022/03/12 02:34:23;;;;;;;1.60;1.50;;;;;;;;;;1728111;82;26317;-83
2022/03/12 02:36:52;;;;;;;3.50;1.40;;;;;;;;;;1725658;82;26904;-85
2022/03/12 02:39:21;;;;;;;1.37;1.27;;;;;;;;;;1742097;82;26282;-84
2022/03/12 02:41:49;;;;;;;1.25;1.25;;;;;;;;;;1740709;82;26348;-83
2022/03/12 02:44:18;;;;;;;1.20;1.20;;;;;;;;;;1728692;81;26354;-84
2022/03/12 02:46:47;;;;;;;1.52;1.42;;;;;;;;;;1743515;82;26306;-84
2022/03/12 02:49:16;;;;;;;1.40;1.32;;;;;;;;;;1740503;82;26302;-83
2022/03/12 02:51:43;;;;;;;1.40;1.40;;;;;;;;;;1741050;82;26306;-84
2022/03/12 02:54:11;;;;;;;1.55;1.55;;;;;;;;;;1727001;82;26278;-83
2022/03/12 02:56:38;;;;;;;1.72;1.40;;;;;;;;;;1741806;82;26302;-83
2022/03/12 02:59:10;;;;;;;1.40;1.30;;;;;;;;;;1731572;82;26363;-83
2022/03/12 03:01:36;;;;;;;1.55;1.42;;;;;;;;;;1735458;82;26343;-83
2022/03/12 03:04:04;;;;;;;1.67;1.57;;;;;;;;;;1743435;82;26309;-84
2022/03/12 03:06:31;;;;;;;1.50;1.50;;;;;;;;;;1740924;82;26521;-83
2022/03/12 03:08:58;;;;;;;1.35;1.35;;;;;;;;;;1732568;82;26367;-83
2022/03/12 03:11:26;;;;;;;1.35;1.35;;;;;;;;;;1735336;81;26290;-83
2022/03/12 03:13:54;;;;;;;1.30;1.30;;;;;;;;;;1733125;82;26355;-83
2022/03/12 03:16:21;;;;;;;1.60;1.50;;;;;;;;;;1732757;82;26289;-83
2022/03/12 03:18:51;;;;;;;1.45;1.35;;;;;;;;;;1732248;81;26281;-84
2022/03/12 03:21:19;;;;;;;1.32;1.32;;;;;;;;;;1727795;81;26286;-84
2022/03/12 03:23:47;;;;;;;1.30;1.30;;;;;;;;;;1732646;81;26731;-83
2022/03/12 03:26:15;;;;;;;1.42;1.35;;;;;;;;;;1748428;81;26229;-85
2022/03/12 03:28:43;;;;;;;1.52;1.50;;;;;;;;;;1740428;81;26632;-83
2022/03/12 03:31:10;;;;;;;1.80;1.50;;;;;;;;;;1745276;81;26258;-83
2022/03/12 03:33:37;;;;;;;1.22;1.22;;;;;;;;;;1733181;82;26304;-83
2022/03/12 03:36:05;;;;;;;1.45;1.45;;;;;;;;;;1727912;82;26289;-83
2022/03/12 03:38:32;;;;;;;1.47;1.37;;;;;;;;;;1719057;82;26683;-83
2022/03/12 03:40:59;;;;;;;1.20;1.20;;;;;;;;;;1728561;82;26348;-85
2022/03/12 03:43:27;;;;;;;1.30;1.30;;;;;;;;;;1741955;81;26372;-83
2022/03/12 03:45:57;;;;;;;1.25;1.25;;;;;;;;;;1723155;80;26293;-84
2022/03/12 03:48:25;;;;;;;1.25;1.25;;;;;;;;;;1733456;82;26224;-83
2022/03/12 03:50:53;;;;;;;1.17;1.17;;;;;;;;;;1751154;81;26365;-83
2022/03/12 03:53:22;;;;;;;1.30;1.30;;;;;;;;;;1741910;81;26309;-85
2022/03/12 03:55:51;;;;;;;1.20;1.20;;;;;;;;;;1732020;82;26288;-83
2022/03/12 03:58:18;;;;;;;1.30;1.30;;;;;;;;;;1738572;81;26308;-85
2022/03/12 04:00:47;;;;;;;1.42;1.32;;;;;;;;;;1729259;82;26325;-85
2022/03/12 04:03:15;;;;;;;2.27;1.20;;;;;;;;;;1727683;82;27211;-85
2022/03/12 04:05:42;;;;;;;1.40;1.30;;;;;;;;;;1732284;82;26353;-84
2022/03/12 04:08:10;;;;;;;1.32;1.30;;;;;;;;;;1728362;82;26272;-84
2022/03/12 04:10:39;;;;;;;1.45;1.35;;;;;;;;;;1736197;82;26353;-84
2022/03/12 04:13:14;;;;;;;2.02;1.30;;;;;;;;;;1737347;81;26340;-84
2022/03/12 04:15:41;;;;;;;1.30;1.30;;;;;;;;;;1764830;80;26822;-85
2022/03/12 04:18:09;;;;;;;1.30;1.30;;;;;;;;;;1743818;81;26620;-84
2022/03/12 04:20:37;;;;;;;1.25;1.25;;;;;;;;;;1762096;80;26274;-86
2022/03/12 04:23:05;;;;;;;1.40;1.32;;;;;;;;;;1762854;80;26285;-84
2022/03/12 04:25:32;;;;;;;1.50;1.40;;;;;;;;;;1780049;80;26724;-83
2022/03/12 04:28:00;;;;;;;1.20;1.15;;;;;;;;;;1762332;81;26281;-84
2022/03/12 04:30:31;;;;;;;1.05;1.05;;;;;;;;;;1762098;81;26289;-84
2022/03/12 04:32:56;;;;;;;1.50;1.40;;;;;;;;;;1742247;80;26748;-85
2022/03/12 04:35:24;;;;;;;1.30;1.30;;;;;;;;;;1760994;80;26764;-84
2022/03/12 04:37:52;;;;;;;2.08;1.40;;;;;;;;;;1754417;81;26756;-83
2022/03/12 04:40:21;;;;;;;1.52;1.40;;;;;;;;;;1762014;81;26737;-83
2022/03/12 04:42:48;;;;;;;1.67;1.27;;;;;;;;;;1761609;81;26387;-84
2022/03/12 04:45:20;;;;;;;2.08;1.25;;;;;;;;;;1761648;80;26312;-86
2022/03/12 04:47:50;;;;;;;1.15;1.15;;;;;;;;;;1761334;81;26273;-84
2022/03/12 04:50:18;;;;;;;1.50;1.40;;;;;;;;;;1760227;81;26215;-83
2022/03/12 04:52:46;;;;;;;1.40;1.40;;;;;;;;;;1757420;81;26250;-83
2022/03/12 04:55:15;;;;;;;1.50;1.40;;;;;;;;;;1761557;81;26848;-83
2022/03/12 04:57:43;;;;;;;1.37;1.30;;;;;;;;;;1752837;80;26300;-84
2022/03/12 05:00:11;;;;;;;1.22;1.22;;;;;;;;;;1757667;81;26265;-84
2022/03/12 05:02:38;;;;;;;1.32;1.30;;;;;;;;;;1761757;81;26353;-85
2022/03/12 05:05:06;;;;;;;4.28;1.50;;;;;;;;;;1757908;81;26400;-82
2022/03/12 05:07:34;;;;;;;1.95;1.17;;;;;;;;;;1761703;81;26238;-83
2022/03/12 05:10:01;;;;;;;2.25;1.30;;;;;;;;;;1758096;81;26320;-83
2022/03/12 05:12:29;;;;;;;1.40;1.40;;;;;;;;;;1750622;81;26854;-84
2022/03/12 05:14:58;;;;;;;1.30;1.30;;;;;;;;;;1761796;80;26351;-83
2022/03/12 05:17:28;;;;;;;1.17;1.17;;;;;;;;;;1757725;81;26277;-84
2022/03/12 05:19:54;;;;;;;3.00;1.25;;;;;;;;;;1752675;81;26370;-83
2022/03/12 05:22:21;;;;;;;3.70;1.30;;;;;;;;;;1756214;80;26874;-83
2022/03/12 05:24:49;;;;;;;1.57;1.47;;;;;;;;;;1752184;80;26269;-84
2022/03/12 05:27:17;;;;;;;1.45;1.30;;;;;;;;;;1749953;80;26299;-84
2022/03/12 05:29:46;;;;;;;1.52;1.42;;;;;;;;;;1756890;80;26368;-83
2022/03/12 05:32:13;;;;;;;1.77;1.30;;;;;;;;;;1746562;80;26323;-83
2022/03/12 05:34:41;;;;;;;1.30;1.30;;;;;;;;;;1748284;80;26763;-83
2022/03/12 05:37:09;;;;;;;3.22;1.60;;;;;;;;;;1744569;81;26367;-83
2022/03/12 05:39:37;;;;;;;4.53;1.40;;;;;;;;;;1754060;81;26250;-83
2022/03/12 05:42:05;;;;;;;1.52;1.40;;;;;;;;;;1745851;81;26339;-84
2022/03/12 05:44:34;;;;;;;2.55;1.30;;;;;;;;;;1752983;80;26375;-84
2022/03/12 05:47:02;;;;;;;2.65;1.35;;;;;;;;;;1745359;81;26399;-83
2022/03/12 05:49:31;;;;;;;1.35;1.25;;;;;;;;;;1745176;81;25931;-83
2022/03/12 05:51:58;;;;;;;1.62;1.52;;;;;;;;;;1750430;81;26766;-83
2022/03/12 05:54:26;;;;;;;1.30;1.30;;;;;;;;;;1749326;81;26815;-83
2022/03/12 05:56:54;;;;;;;1.17;1.10;;;;;;;;;;1749815;81;26282;-83
2022/03/12 05:59:21;;;;;;;1.22;1.22;;;;;;;;;;1756949;81;26242;-83
2022/03/12 06:01:50;;;;;;;1.95;1.20;;;;;;;;;;1749276;81;26333;-83
2022/03/12 06:04:22;;;;;;;1.32;1.30;;;;;;;;;;1749314;80;26285;-83
2022/03/12 06:06:47;;;;;;;2.65;2.00;;;;;;;;;;1748931;81;26316;-84
2022/03/12 06:09:14;;;;;;;1.77;1.20;;;;;;;;;;1747367;81;26376;-83
2022/03/12 06:11:42;;;;;;;1.70;1.30;;;;;;;;;;1750896;81;26292;-84
2022/03/12 06:14:14;;;;;;;1.12;1.10;;;;;;;;;;1732552;81;26762;-84
2022/03/12 06:16:38;;;;;;;1.40;1.30;;;;;;;;;;1731425;82;26326;-85
2022/03/12 06:19:07;;;;;;;1.42;1.27;;;;;;;;;;1737101;82;26286;-84
2022/03/12 06:21:35;;;;;;;1.30;1.30;;;;;;;;;;1728094;81;26372;-84
2022/03/12 06:24:03;;;;;;;1.50;1.25;;;;;;;;;;1737695;81;26607;-83
2022/03/12 06:26:35;;;;;;;2.80;1.40;;;;;;;;;;1732443;81;26307;-83
2022/03/12 06:28:59;;;;;;;1.30;1.30;;;;;;;;;;1739124;81;26345;-84
2022/03/12 06:31:27;;;;;;;3.55;1.45;;;;;;;;;;1729992;81;26445;-84
2022/03/12 06:33:54;;;;;;;3.00;1.25;;;;;;;;;;1729616;81;26291;-84
2022/03/12 06:36:27;;;;;;;3.15;1.37;;;;;;;;;;1740039;81;26275;-83
2022/03/12 06:38:50;;;;;;;1.42;1.32;;;;;;;;;;1729218;81;26321;-83
2022/03/12 06:41:21;;;;;;;1.40;1.30;;;;;;;;;;1734228;81;26860;-84
2022/03/12 06:43:48;;;;;;;1.72;1.40;;;;;;;;;;1734100;81;26422;-83
2022/03/12 06:46:16;;;;;;;1.37;1.32;;;;;;;;;;1737823;81;26703;-84
2022/03/12 06:48:43;;;;;;;1.30;1.30;;;;;;;;;;1732888;82;26281;-83
2022/03/12 06:51:11;;;;;;;1.20;1.20;;;;;;;;;;1733901;81;26626;-83
2022/03/12 06:53:39;;;;;;;2.20;1.30;;;;;;;;;;1729854;82;26354;-83
2022/03/12 06:56:09;;;;;;;1.98;1.20;;;;;;;;;;1727961;82;26270;-82
2022/03/12 06:58:37;;;;;;;1.20;1.20;;;;;;;;;;1728702;82;26328;-83
2022/03/12 07:01:05;;;;;;;3.70;1.20;;;;;;;;;;1728169;82;26320;-83
2022/03/12 07:03:32;;;;;;;1.47;1.30;;;;;;;;;;1733104;81;26258;-84
2022/03/12 07:06:00;;;;;;;1.05;1.05;;;;;;;;;;1735812;82;26753;-82
2022/03/12 07:08:27;;;;;;;1.40;1.30;;;;;;;;;;1736769;82;26377;-84
2022/03/12 07:10:56;;;;;;;1.40;1.40;;;;;;;;;;1732557;81;26364;-83
2022/03/12 07:13:23;;;;;;;1.50;1.40;;;;;;;;;;1730535;81;26471;-83
2022/03/12 07:15:52;;;;;;;2.47;1.30;;;;;;;;;;1733374;81;26309;-82
2022/03/12 07:18:19;;;;;;;3.02;1.32;;;;;;;;;;1722963;81;26241;-82
2022/03/12 07:20:47;;;;;;;1.32;1.22;;;;;;;;;;1734568;82;26765;-84
2022/03/12 07:23:14;;;;;;;1.32;1.32;;;;;;;;;;1738019;81;26326;-83
2022/03/12 07:25:42;;;;;;;1.40;1.20;;;;;;;;;;1733130;81;26293;-84
2022/03/12 07:28:10;;;;;;;3.20;1.70;;;;;;;;;;1721712;81;26435;-84
2022/03/12 07:30:38;;;;;;;2.92;1.37;;;;;;;;;;1734026;81;26302;-83
2022/03/12 07:33:05;;;;;;;1.52;1.17;;;;;;;;;;1737351;81;26368;-87
2022/03/12 07:35:33;;;;;;;1.77;1.10;;;;;;;;;;1738471;81;26243;-84
2022/03/12 07:38:00;;;;;;;1.50;1.40;;;;;;;;;;1733666;81;26304;-85
2022/03/12 07:40:27;;;;;;;1.40;1.12;;;;;;;;;;1733882;81;26277;-84
2022/03/12 07:42:55;;;;;;;1.32;1.22;;;;;;;;;;1732468;81;26332;-84
2022/03/12 07:45:22;;;;;;;1.20;1.20;;;;;;;;;;1727666;81;26278;-84
2022/03/12 07:47:52;;;;;;;10.93;1.75;;;;;;;;;;1732690;81;26336;-84
2022/03/12 07:50:19;;;;;;;1.50;1.40;;;;;;;;;;1733603;82;26816;-86
2022/03/12 07:52:46;;;;;;;1.35;1.30;;;;;;;;;;1735000;82;26270;-83
2022/03/12 07:55:16;;;;;;;1.17;1.10;;;;;;;;;;1733038;81;26785;-83
2022/03/12 07:57:43;;;;;;;1.37;1.27;;;;;;;;;;1731448;82;26324;-82
2022/03/12 08:00:11;;;;;;;2.52;1.10;;;;;;;;;;1727513;81;26373;-83
2022/03/12 08:02:39;;;;;;;2.98;1.37;;;;;;;;;;1731193;82;26238;-83
2022/03/12 08:05:06;;;;;;;5.17;1.35;;;;;;;;;;1721476;82;26616;-82
2022/03/12 08:07:33;;;;;;;3.37;1.20;;;;;;;;;;1734952;81;26823;-81
2022/03/12 08:10:01;;;;;;;3.42;1.40;;;;;;;;;;1733168;81;26293;-82
2022/03/12 08:12:30;;;;;;;3.33;1.20;;;;;;;;;;1736102;81;26308;-83
2022/03/12 08:14:58;;;;;;;3.22;1.30;;;;;;;;;;1740703;80;26358;-81
2022/03/12 08:17:25;;;;;;;4.05;1.25;;;;;;;;;;1754236;81;27080;-82
2022/03/12 08:19:54;;;;;;;3.12;1.22;;;;;;;;;;1747859;80;26398;-85
2022/03/12 08:22:22;;;;;;;4.15;1.45;;;;;;;;;;1748464;80;26820;-83
2022/03/12 08:24:49;;;;;;;3.85;1.32;;;;;;;;;;1752031;80;26270;-82
2022/03/12 08:27:17;;;;;;;3.50;1.27;;;;;;;;;;1746286;80;26299;-83
2022/03/12 08:29:44;;;;;;;2.30;1.10;;;;;;;;;;1755592;80;26355;-83
2022/03/12 08:32:12;;;;;;;3.22;1.30;;;;;;;;;;1750783;80;26551;-84
2022/03/12 08:34:41;;;;;;;3.42;1.17;;;;;;;;;;1747626;80;26304;-82
2022/03/12 08:37:08;;;;;;;1.10;1.10;;;;;;;;;;1744928;80;26327;-82
2022/03/12 08:39:35;;;;;;;2.90;1.20;;;;;;;;;;1757659;80;26316;-83
2022/03/12 08:42:03;;;;;;;1.40;1.30;;;;;;;;;;1752666;80;26315;-83
2022/03/12 08:44:30;;;;;;;4.25;1.12;;;;;;;;;;1751785;80;26830;-83
2022/03/12 08:46:58;;;;;;;1.20;1.10;;;;;;;;;;1751634;80;26757;-85
2022/03/12 08:49:25;;;;;;;1.07;1.07;;;;;;;;;;1745657;80;26341;-86
2022/03/12 08:51:52;;;;;;;1.12;1.10;;;;;;;;;;1753688;80;26234;-83
2022/03/12 08:54:20;;;;;;;1.10;1.10;;;;;;;;;;1739667;80;26296;-84
2022/03/12 08:56:47;;;;;;;1.90;1.32;;;;;;;;;;1747645;81;26352;-81
2022/03/12 08:59:14;;;;;;;2.72;1.02;;;;;;;;;;1749559;81;26364;-83
2022/03/12 09:01:43;;;;;;;1.90;1.10;;;;;;;;;;1741608;81;26358;-82
2022/03/12 09:04:10;;;;;;;2.20;1.10;;;;;;;;;;1751582;81;26337;-82
2022/03/12 09:06:38;;;;;;;2.83;1.20;;;;;;;;;;1757850;80;26823;-82
2022/03/12 09:09:06;;;;;;;1.12;1.02;;;;;;;;;;1768013;80;26293;-84
2022/03/12 09:11:33;;;;;;;2.65;1.17;;;;;;;;;;1756438;80;26324;-82
2022/03/12 09:14:00;;;;;;;3.17;1.10;;;;;;;;;;1753366;80;27088;-84
2022/03/12 09:16:27;;;;;;;3.20;1.10;;;;;;;;;;1763108;80;26317;-83
2022/03/12 09:18:55;;;;;;;1.00;1.00;;;;;;;;;;1758983;80;26638;-83
2022/03/12 09:21:23;;;;;;;2.25;1.10;;;;;;;;;;1745714;80;26279;-82
2022/03/12 09:23:52;;;;;;;1.82;1.27;;;;;;;;;;1755808;80;26379;-84
2022/03/12 09:26:21;;;;;;;1.05;1.05;;;;;;;;;;1752620;80;26318;-83
2022/03/12 09:28:49;;;;;;;2.90;1.30;;;;;;;;;;1756184;80;26866;-83
2022/03/12 09:31:17;;;;;;;1.10;1.10;;;;;;;;;;1749405;80;26324;-83
2022/03/12 09:33:44;;;;;;;2.15;1.27;;;;;;;;;;1751314;80;26329;-84
2022/03/12 09:36:11;;;;;;;1.17;1.00;;;;;;;;;;1750712;80;26383;-83
2022/03/12 09:38:39;;;;;;;1.82;1.40;;;;;;;;;;1752457;81;26005;-83
2022/03/12 09:41:07;;;;;;;3.12;1.10;;;;;;;;;;1756302;81;26371;-83
2022/03/12 09:43:34;;;;;;;1.10;1.05;;;;;;;;;;1750530;80;26910;-82
2022/03/12 09:46:01;;;;;;;1.05;1.05;;;;;;;;;;1756837;80;26270;-83
2022/03/12 09:48:29;;;;;;;1.77;1.37;;;;;;;;;;1746700;80;26284;-82
2022/03/12 09:50:56;;;;;;;1.45;1.20;;;;;;;;;;1758673;80;26729;-83
2022/03/12 09:53:23;;;;;;;1.30;1.20;;;;;;;;;;1771162;80;26289;-83
2022/03/12 09:55:50;;;;;;;1.95;1.10;;;;;;;;;;1749866;80;26278;-84
2022/03/12 09:58:18;;;;;;;1.20;1.10;;;;;;;;;;1755408;80;26723;-85
2022/03/12 10:00:45;;;;;;;1.17;1.10;;;;;;;;;;1756782;80;26338;-83
2022/03/12 10:03:13;;;;;;;1.12;1.12;;;;;;;;;;1754704;80;26396;-82
2022/03/12 10:05:40;;;;;;;1.30;1.20;;;;;;;;;;1753127;80;26315;-82
2022/03/12 10:08:07;;;;;;;1.30;1.20;;;;;;;;;;1755894;80;26284;-81
2022/03/12 10:10:35;;;;;;;1.10;1.10;;;;;;;;;;1750505;80;26357;-83
2022/03/12 10:13:04;;;;;;;1.10;1.10;;;;;;;;;;1753455;80;26658;-83
2022/03/12 10:15:31;;;;;;;1.30;1.20;;;;;;;;;;1744512;80;26387;-82
2022/03/12 10:18:00;;;;;;;1.00;1.00;;;;;;;;;;1731916;81;26856;-82
2022/03/12 10:20:28;;;;;;;1.22;1.20;;;;;;;;;;1737919;81;27094;-82
2022/03/12 10:22:56;;;;;;;1.37;1.27;;;;;;;;;;1733906;82;26291;-84
2022/03/12 10:25:23;;;;;;;1.30;1.20;;;;;;;;;;1736740;81;26302;-84
2022/03/12 10:27:51;;;;;;;1.25;1.15;;;;;;;;;;1735364;82;26305;-83
2022/03/12 10:30:19;;;;;;;1.05;1.00;;;;;;;;;;1724359;82;26316;-83
2022/03/12 10:32:48;;;;;;;2.15;1.20;;;;;;;;;;1715365;82;26289;-83
2022/03/12 10:35:18;;;;;;;1.22;1.12;;;;;;;;;;1733904;82;26277;-82
2022/03/12 10:37:46;;;;;;;1.20;1.00;;;;;;;;;;1715739;82;26380;-82
2022/03/12 10:40:15;;;;;;;2.05;1.20;;;;;;;;;;1732970;82;26258;-83
2022/03/12 10:42:47;;;;;;;1.10;1.10;;;;;;;;;;1713141;82;26304;-83
2022/03/12 10:45:16;;;;;;;1.10;1.10;;;;;;;;;;1734943;82;26345;-82
2022/03/12 10:47:47;;;;;;;1.20;1.20;;;;;;;;;;1741013;82;26280;-82
2022/03/12 10:50:17;;;;;;;1.22;1.10;;;;;;;;;;1741995;82;26353;-86
2022/03/12 10:52:49;;;;;;;1.30;1.20;;;;;;;;;;1742548;82;26262;-83
2022/03/12 10:55:20;;;;;;;2.50;1.22;;;;;;;;;;1733903;82;26292;-83
2022/03/12 10:57:49;;;;;;;1.30;1.30;;;;;;;;;;1721412;81;26249;-83
2022/03/12 11:00:17;;;;;;;1.27;1.12;;;;;;;;;;1717047;82;26292;-82
2022/03/12 11:02:47;;;;;;;1.17;1.12;;;;;;;;;;1739067;82;26352;-83
2022/03/12 11:05:14;;;;;;;1.00;1.00;;;;;;;;;;1741800;82;26346;-83
2022/03/12 11:07:41;;;;;;;1.00;1.00;;;;;;;;;;1737504;82;26301;-83
2022/03/12 11:10:09;;;;;;;1.27;1.17;;;;;;;;;;1715775;82;26300;-83
2022/03/12 11:12:36;;;;;;;2.27;1.30;;;;;;;;;;1738972;82;26305;-83
2022/03/12 11:15:10;;;;;;;2.45;1.20;;;;;;;;;;1740580;81;26769;-83
2022/03/12 11:17:43;;;;;;;1.10;1.10;;;;;;;;;;1720852;82;26735;-82
2022/03/12 11:20:15;;;;;;;1.30;1.20;;;;;;;;;;1737374;82;26270;-83
2022/03/12 11:22:41;;;;;;;2.25;1.20;;;;;;;;;;1742478;82;26297;-83
2022/03/12 11:25:10;;;;;;;1.07;1.07;;;;;;;;;;1726712;82;26921;-82
2022/03/12 11:27:37;;;;;;;1.85;1.30;;;;;;;;;;1722230;82;26315;-83
2022/03/12 11:30:10;;;;;;;1.00;1.00;;;;;;;;;;1731947;82;26379;-83
2022/03/12 11:32:37;;;;;;;1.12;1.12;;;;;;;;;;1731837;82;26428;-82
2022/03/12 11:35:06;;;;;;;1.17;1.05;;;;;;;;;;1715835;82;26320;-83
2022/03/12 11:37:36;;;;;;;1.20;1.20;;;;;;;;;;1723890;82;26952;-83
2022/03/12 11:40:05;;;;;;;1.32;1.10;;;;;;;;;;1732707;82;26843;-83
2022/03/12 11:42:34;;;;;;;1.12;1.10;;;;;;;;;;1716619;82;26336;-83
2022/03/12 11:45:02;;;;;;;1.50;1.00;;;;;;;;;;1730121;81;26269;-83
2022/03/12 11:47:31;;;;;;;1.27;1.25;;;;;;;;;;1734691;82;26344;-83
2022/03/12 11:50:03;;;;;;;1.05;1.05;;;;;;;;;;1724979;82;26993;-82
2022/03/12 11:52:32;;;;;;;2.65;1.15;;;;;;;;;;1734026;82;26274;-83
2022/03/12 11:55:02;;;;;;;1.32;1.10;;;;;;;;;;1735365;82;26312;-83
2022/03/12 11:57:31;;;;;;;1.40;1.30;;;;;;;;;;1726866;82;26321;-82
2022/03/12 11:59:59;;;;;;;2.15;1.15;;;;;;;;;;1729537;82;26246;-83
2022/03/12 12:02:34;;;;;;;1.95;1.02;;;;;;;;;;1727186;82;26280;-82
2022/03/12 12:05:04;;;;;;;1.00;1.00;;;;;;;;;;1746219;81;26328;-82
2022/03/12 12:07:36;;;;;;;1.00;1.00;;;;;;;;;;1727805;82;26346;-82
2022/03/12 12:10:01;;;;;;;0.90;0.90;;;;;;;;;;1745125;82;26238;-82
2022/03/12 12:12:32;;;;;;;0.90;0.90;;;;;;;;;;1746467;82;26320;-83
2022/03/12 12:14:58;;;;;;;1.60;1.10;;;;;;;;;;1741776;81;26323;-83
2022/03/12 12:17:25;;;;;;;1.75;1.12;;;;;;;;;;1749992;81;26463;-84
2022/03/12 12:19:52;;;;;;;1.85;0.95;;;;;;;;;;1752361;80;26291;-84
2022/03/12 12:22:20;;;;;;;1.65;0.98;;;;;;;;;;1749203;81;26327;-83
2022/03/12 12:24:48;;;;;;;0.98;0.98;;;;;;;;;;1747400;81;26282;-84
2022/03/12 12:27:17;;;;;;;2.30;1.10;;;;;;;;;;1754866;81;27399;-83
2022/03/12 12:29:54;;;;;;;0.90;0.90;;;;;;;;;;1753397;81;26310;-82
2022/03/12 12:32:22;;;;;;;1.50;1.00;;;;;;;;;;1749223;81;26339;-82
2022/03/12 12:35:06;;;;;;;0.93;0.93;;;;;;;;;;1749278;80;26366;-82
2022/03/12 12:37:54;;;;;;;1.00;1.00;;;;;;;;;;1752807;81;26380;-84
2022/03/12 12:40:32;;;;;;;1.15;0.98;;;;;;;;;;1745217;81;26319;-82
2022/03/12 12:43:02;;;;;;;1.17;0.95;;;;;;;;;;1756155;81;26320;-83
2022/03/12 12:45:31;;;;;;;0.90;0.90;;;;;;;;;;1753328;81;26262;-83
2022/03/12 12:48:09;;;;;;;0.90;0.90;;;;;;;;;;1744359;81;26352;-83
2022/03/12 12:50:36;;;;;;;0.80;0.80;;;;;;;;;;1752413;80;26355;-83
2022/03/12 12:53:11;;;;;;;1.00;1.00;;;;;;;;;;1751713;80;26380;-83
2022/03/12 12:55:39;;;;;;;1.00;1.00;;;;;;;;;;1749276;81;26345;-83
2022/03/12 12:58:07;;;;;;;0.95;0.95;;;;;;;;;;1747838;80;26739;-84
2022/03/12 13:00:37;;;;;;;1.45;0.90;;;;;;;;;;1745514;80;26788;-83
2022/03/12 13:03:05;;;;;;;0.80;0.80;;;;;;;;;;1751130;80;26393;-85
2022/03/12 13:05:50;;;;;;;0.80;0.80;;;;;;;;;;1752086;80;26355;-83
2022/03/12 13:08:20;;;;;;;0.95;0.95;;;;;;;;;;1750698;80;26447;-83
2022/03/12 13:10:47;;;;;;;0.85;0.85;;;;;;;;;;1752129;80;26352;-82
2022/03/12 13:13:16;;;;;;;1.00;1.00;;;;;;;;;;1748174;81;26297;-83
2022/03/12 13:15:44;;;;;;;0.90;0.90;;;;;;;;;;1757851;80;26292;-84
2022/03/12 13:18:13;;;;;;;1.30;1.20;;;;;;;;;;1742587;81;26367;-82
2022/03/12 13:20:43;;;;;;;1.10;1.00;;;;;;;;;;1743270;81;26343;-82
2022/03/12 13:23:10;;;;;;;1.10;1.02;;;;;;;;;;1741540;81;26799;-82
2022/03/12 13:25:48;;;;;;;1.75;1.07;;;;;;;;;;1754237;81;26280;-81
2022/03/12 13:28:16;;;;;;;1.20;1.10;;;;;;;;;;1730065;81;26564;-82
2022/03/12 13:30:44;;;;;;;1.02;0.90;;;;;;;;;;1743758;81;26259;-82
2022/03/12 13:33:11;;;;;;;0.93;0.93;;;;;;;;;;1744104;81;26383;-82
2022/03/12 13:35:39;;;;;;;1.00;1.00;;;;;;;;;;1753530;80;26722;-82
2022/03/12 13:38:06;;;;;;;1.00;1.00;;;;;;;;;;1750746;81;26353;-83
2022/03/12 13:40:33;;;;;;;2.47;0.80;;;;;;;;;;1753108;81;26778;-83
2022/03/12 13:43:02;;;;;;;1.47;0.88;;;;;;;;;;1753266;81;26800;-82
2022/03/12 13:45:33;;;;;;;0.90;0.90;;;;;;;;;;1748953;81;26307;-83
2022/03/12 13:48:02;;;;;;;1.00;1.00;;;;;;;;;;1754184;80;26395;-82
2022/03/12 13:50:30;;;;;;;1.30;1.20;;;;;;;;;;1754979;80;26286;-82
2022/03/12 13:52:59;;;;;;;1.27;1.27;;;;;;;;;;1750672;80;26385;-82
2022/03/12 13:55:27;;;;;;;1.37;1.30;;;;;;;;;;1757856;80;26783;-82
2022/03/12 13:57:59;;;;;;;1.22;1.20;;;;;;;;;;1761929;81;26304;-82
2022/03/12 14:00:26;;;;;;;3.37;1.22;;;;;;;;;;1754213;80;26293;-82
2022/03/12 14:02:54;;;;;;;2.20;1.27;;;;;;;;;;1744528;80;26747;-83
2022/03/12 14:05:24;;;;;;;1.57;1.47;;;;;;;;;;1741304;80;26604;-82
2022/03/12 14:07:51;;;;;;;2.17;1.95;;;;;;;;;;1745719;80;26439;-83
2022/03/12 14:10:18;;;;;;;4.17;1.95;;;;;;;;;;1752228;80;26298;-83
2022/03/12 14:12:47;;;;;;;3.30;2.50;;;;;;;;;;1753240;80;26308;-84
2022/03/12 14:15:15;;;;;;;2.83;2.58;;;;;;;;;;1742071;80;26293;-83
2022/03/12 14:17:45;;;;;;;3.58;2.60;;;;;;;;;;1753487;80;26836;-84
2022/03/12 14:20:14;;;;;;;5.80;3.22;;;;;;;;;;1753501;80;26357;-83
2022/03/12 14:22:41;;;;;;;7.67;4.08;;;;;;;;;;1754906;80;26304;-83
2022/03/12 14:25:09;;;;;;;8.60;3.92;;;;;;;;;;1748923;80;26292;-82
2022/03/12 14:27:40;;;;;;;10.48;4.55;;;;;;;;;;1748419;80;26348;-83
2022/03/12 14:30:08;;;;;;;10.75;5.15;;;;;;;;;;1747629;80;26336;-82
2022/03/12 14:32:35;;;;;;;10.90;4.92;;;;;;;;;;1746817;80;26395;-82
2022/03/12 14:35:03;;;;;;;13.32;5.33;;;;;;;;;;1747798;80;26370;-82
2022/03/12 14:37:30;;;;;;;10.38;5.17;;;;;;;;;;1741253;80;26296;-83
2022/03/12 14:39:58;;;;;;;12.60;5.62;;;;;;;;;;1746483;80;26355;-82
2022/03/12 14:42:25;;;;;;;15.30;6.47;;;;;;;;;;1754241;80;26273;-83
2022/03/12 14:44:53;;;;;;;11.90;5.83;;;;;;;;;;1754885;80;26340;-81
2022/03/12 14:47:21;;;;;;;12.68;6.37;;;;;;;;;;1757387;80;26359;-81
2022/03/12 14:49:55;;;;;;;15.50;6.42;;;;;;;;;;1752035;80;27101;-82